Time;durP1;ratioP1;P1;durP2;ratioP2;P2;SDS_P1;SDS_P2;PMS_P1;PMS_P2;Temp;Humidity;BMP_temperature;BMP_pressure;BME280_temperature;BME280_humidity;BME280_pressure;Samples;Min_cycle;Max_cycle;Signal;HPM_P1;HPM_P2
2021/06/23 00:02:18;;;;;;;5.55;3.00;;;19.00;99.90;;;;;;5073180;28;20086;-74
2021/06/23 00:04:44;;;;;;;7.18;3.33;;;19.00;99.90;;;;;;5072741;28;20054;-74
2021/06/23 00:07:10;;;;;;;5.97;3.00;;;19.00;99.90;;;;;;5072842;28;20023;-75
2021/06/23 00:09:36;;;;;;;6.55;3.05;;;19.00;99.90;;;;;;5072533;28;20041;-75
2021/06/23 00:12:02;;;;;;;6.97;2.83;;;18.90;99.90;;;;;;5072816;28;20456;-74
2021/06/23 00:14:28;;;;;;;5.72;2.78;;;18.90;99.90;;;;;;5071163;28;20025;-74
2021/06/23 00:16:54;;;;;;;6.78;2.80;;;18.90;99.90;;;;;;5072681;28;20016;-74
2021/06/23 00:19:22;;;;;;;6.47;2.90;;;18.90;99.90;;;;;;5073139;28;20104;-74
2021/06/23 00:21:48;;;;;;;6.00;2.72;;;18.90;99.90;;;;;;5072094;28;20017;-74
2021/06/23 00:24:13;;;;;;;5.65;2.75;;;18.90;99.90;;;;;;5072305;28;20052;-75
2021/06/23 00:26:39;;;;;;;4.78;2.70;;;18.90;99.90;;;;;;5072310;28;20024;-74
2021/06/23 00:29:05;;;;;;;5.78;2.63;;;18.90;99.90;;;;;;5072516;28;20104;-74
2021/06/23 00:31:31;;;;;;;5.53;2.55;;;18.80;99.90;;;;;;5072053;28;20533;-74
2021/06/23 00:34:00;;;;;;;4.75;2.72;;;18.80;99.90;;;;;;5072408;28;20384;-75
2021/06/23 00:36:26;;;;;;;4.82;2.65;;;18.80;99.90;;;;;;5072040;28;20107;-75
2021/06/23 00:38:52;;;;;;;4.25;2.58;;;18.80;99.90;;;;;;5072567;28;20154;-75
2021/06/23 00:41:18;;;;;;;4.43;2.70;;;18.80;99.90;;;;;;5072465;28;20035;-74
2021/06/23 00:43:48;;;;;;;5.30;2.42;;;18.80;99.90;;;;;;5071859;28;20116;-75
2021/06/23 00:46:15;;;;;;;5.18;2.50;;;18.80;99.90;;;;;;5071000;28;20020;-75
2021/06/23 00:48:41;;;;;;;4.82;2.38;;;18.80;99.90;;;;;;5071814;28;20495;-75
2021/06/23 00:51:07;;;;;;;6.43;2.20;;;18.80;99.90;;;;;;5071691;28;20028;-75
2021/06/23 00:53:34;;;;;;;6.70;2.72;;;18.70;99.90;;;;;;5070561;28;20091;-74
2021/06/23 00:56:01;;;;;;;4.90;2.38;;;18.70;99.90;;;;;;5071898;28;20095;-74
2021/06/23 00:58:28;;;;;;;5.93;2.22;;;18.70;99.90;;;;;;5071758;28;20468;-74
2021/06/23 01:00:55;;;;;;;5.15;2.50;;;18.70;99.90;;;;;;5071673;28;20487;-74
2021/06/23 01:03:22;;;;;;;3.95;2.15;;;18.70;99.90;;;;;;5072021;28;20043;-75
2021/06/23 01:05:48;;;;;;;3.47;2.10;;;18.70;99.90;;;;;;5070984;28;20029;-74
2021/06/23 01:08:15;;;;;;;5.60;2.78;;;18.70;99.90;;;;;;5071780;28;20067;-74
2021/06/23 01:10:40;;;;;;;3.85;1.90;;;18.70;99.90;;;;;;5071479;28;20024;-75
2021/06/23 01:13:30;;;;;;;7.55;2.60;;;18.70;99.90;;;;;;5070519;28;20025;-74
2021/06/23 01:15:59;;;;;;;4.45;2.05;;;18.70;99.90;;;;;;5071525;28;20024;-74
2021/06/23 01:18:25;;;;;;;5.53;2.70;;;18.60;99.90;;;;;;5071448;28;20025;-74
2021/06/23 01:20:52;;;;;;;4.10;2.30;;;18.70;99.90;;;;;;5071254;28;20074;-75
2021/06/23 01:23:18;;;;;;;4.18;1.85;;;18.70;99.90;;;;;;5071380;28;20481;-75
2021/06/23 01:25:46;;;;;;;5.60;2.42;;;18.70;99.90;;;;;;5071046;28;20028;-74
2021/06/23 01:28:12;;;;;;;6.32;2.40;;;18.70;99.90;;;;;;5070316;28;20078;-74
2021/06/23 01:30:38;;;;;;;4.28;2.40;;;18.70;99.90;;;;;;5071241;28;20107;-74
2021/06/23 01:33:05;;;;;;;5.18;2.25;;;18.60;99.90;;;;;;5071639;28;20492;-74
2021/06/23 01:35:32;;;;;;;4.50;2.40;;;18.60;99.90;;;;;;5071416;28;20020;-74
2021/06/23 01:38:00;;;;;;;4.78;2.50;;;18.60;99.90;;;;;;5071588;28;20028;-74
2021/06/23 01:40:26;;;;;;;6.57;2.25;;;18.60;99.90;;;;;;5071246;28;20028;-75
2021/06/23 01:42:52;;;;;;;3.97;2.03;;;18.60;99.90;;;;;;5071596;28;20043;-73
2021/06/23 01:45:18;;;;;;;5.47;2.20;;;18.60;99.90;;;;;;5071742;28;20028;-74
2021/06/23 01:47:44;;;;;;;5.35;2.05;;;18.60;99.90;;;;;;5071153;28;20017;-75
2021/06/23 01:50:12;;;;;;;4.65;1.90;;;18.60;99.90;;;;;;5070961;28;20029;-74
2021/06/23 01:52:44;;;;;;;3.75;1.90;;;18.60;99.90;;;;;;5070751;28;20028;-74
2021/06/23 01:55:27;;;;;;;6.40;2.25;;;18.60;99.90;;;;;;5071312;28;20023;-75
2021/06/23 01:57:58;;;;;;;4.25;1.80;;;18.60;99.90;;;;;;5071815;28;20056;-74
2021/06/23 02:00:30;;;;;;;3.17;2.10;;;18.60;99.90;;;;;;5071081;28;20116;-74
2021/06/23 02:03:01;;;;;;;4.25;1.83;;;18.60;99.90;;;;;;5070139;28;20032;-74
2021/06/23 02:05:42;;;;;;;4.35;2.13;;;18.60;99.90;;;;;;5069677;28;20028;-74
2021/06/23 02:08:10;;;;;;;4.25;2.10;;;18.60;99.90;;;;;;5071101;28;20029;-75
2021/06/23 02:11:03;;;;;;;5.07;2.00;;;18.60;99.90;;;;;;5070853;28;20032;-74
2021/06/23 02:13:29;;;;;;;5.30;2.20;;;18.60;99.90;;;;;;5070969;28;20025;-74
2021/06/23 02:16:09;;;;;;;3.78;1.80;;;18.60;99.90;;;;;;5071070;28;20063;-74
2021/06/23 02:18:37;;;;;;;4.28;2.03;;;18.60;99.90;;;;;;5074304;28;20032;-75
2021/06/23 02:21:04;;;;;;;4.30;1.98;;;18.60;99.90;;;;;;5074480;28;20381;-74
2021/06/23 02:23:31;;;;;;;3.97;1.80;;;18.60;99.90;;;;;;5074488;28;20033;-75
2021/06/23 02:25:57;;;;;;;2.55;1.50;;;18.60;99.90;;;;;;5074818;28;20042;-74
2021/06/23 02:28:23;;;;;;;4.50;1.98;;;18.60;99.90;;;;;;5074679;28;20540;-74
2021/06/23 02:30:50;;;;;;;4.00;1.98;;;18.50;99.90;;;;;;5074962;28;20103;-75
2021/06/23 02:33:18;;;;;;;3.75;2.08;;;18.50;99.90;;;;;;5074615;28;20025;-74
2021/06/23 02:35:44;;;;;;;4.65;1.88;;;18.50;99.90;;;;;;5074482;28;20028;-73
2021/06/23 02:38:10;;;;;;;4.40;1.90;;;18.50;99.90;;;;;;5074655;28;20096;-74
2021/06/23 02:40:36;;;;;;;4.07;1.45;;;18.50;99.90;;;;;;5074370;28;20048;-75
2021/06/23 02:43:03;;;;;;;5.82;2.03;;;18.50;99.90;;;;;;5074509;28;20032;-74
2021/06/23 02:45:30;;;;;;;3.50;1.90;;;18.50;99.90;;;;;;5074130;28;20016;-74
2021/06/23 02:47:56;;;;;;;3.25;1.95;;;18.50;99.90;;;;;;5074439;28;20025;-75
2021/06/23 02:50:23;;;;;;;4.20;1.58;;;18.50;99.90;;;;;;5074500;28;20461;-74
2021/06/23 02:52:49;;;;;;;5.80;1.73;;;18.50;99.90;;;;;;5074382;28;20031;-75
2021/06/23 02:55:21;;;;;;;5.38;1.75;;;18.50;99.90;;;;;;5074287;28;20020;-74
2021/06/23 02:57:48;;;;;;;4.05;1.55;;;18.50;99.90;;;;;;5074028;28;20056;-76
2021/06/23 03:00:15;;;;;;;4.57;1.50;;;18.50;99.90;;;;;;5074159;28;20476;-75
2021/06/23 03:02:40;;;;;;;4.25;1.88;;;18.50;99.90;;;;;;5073613;28;20033;-74
2021/06/23 03:05:07;;;;;;;4.35;1.65;;;18.50;99.90;;;;;;5074012;28;20537;-76
2021/06/23 03:07:33;;;;;;;4.20;1.88;;;18.40;99.90;;;;;;5073747;28;20071;-75
2021/06/23 03:10:10;;;;;;;3.72;1.50;;;18.40;99.90;;;;;;5073904;28;20137;-75
2021/06/23 03:12:36;;;;;;;5.05;1.60;;;18.40;99.90;;;;;;5073879;28;20036;-76
2021/06/23 03:15:04;;;;;;;4.63;1.70;;;18.40;99.90;;;;;;5073956;28;20040;-75
2021/06/23 03:17:30;;;;;;;5.55;1.90;;;18.40;99.90;;;;;;5073704;28;20025;-75
2021/06/23 03:19:55;;;;;;;5.15;1.70;;;18.40;99.90;;;;;;5073409;28;20443;-75
2021/06/23 03:22:21;;;;;;;3.70;1.58;;;18.50;99.90;;;;;;5073899;28;20041;-75
2021/06/23 03:24:47;;;;;;;5.50;1.80;;;18.40;99.90;;;;;;5073583;28;20017;-75
2021/06/23 03:27:12;;;;;;;4.20;1.65;;;18.40;99.90;;;;;;5073686;28;20487;-75
2021/06/23 03:29:38;;;;;;;1.98;1.27;;;18.40;99.90;;;;;;5072593;28;20414;-76
2021/06/23 03:32:09;;;;;;;4.85;1.77;;;18.40;99.90;;;;;;5073598;28;20020;-75
2021/06/23 03:34:35;;;;;;;3.88;1.58;;;18.40;99.90;;;;;;5073447;28;20037;-74
2021/06/23 03:37:02;;;;;;;3.05;1.42;;;18.40;99.90;;;;;;5072395;28;20017;-75
2021/06/23 03:39:28;;;;;;;3.40;1.50;;;18.40;99.90;;;;;;5073433;28;20039;-74
2021/06/23 03:41:54;;;;;;;4.45;1.83;;;18.40;99.90;;;;;;5073314;28;20025;-74
2021/06/23 03:44:19;;;;;;;5.88;2.05;;;18.40;99.90;;;;;;5073671;28;20024;-74
2021/06/23 03:46:45;;;;;;;4.50;1.73;;;18.40;99.90;;;;;;5072797;28;20081;-74
2021/06/23 03:49:11;;;;;;;3.72;1.65;;;18.40;99.90;;;;;;5073100;28;20499;-74
2021/06/23 03:51:36;;;;;;;4.95;1.70;;;18.40;99.90;;;;;;5072985;28;20024;-74
2021/06/23 03:54:02;;;;;;;4.72;1.73;;;18.40;99.90;;;;;;5073132;28;20028;-75
2021/06/23 03:56:29;;;;;;;4.47;1.40;;;18.40;99.90;;;;;;5072919;28;20082;-75
2021/06/23 03:58:55;;;;;;;2.75;1.40;;;18.40;99.90;;;;;;5073043;28;20025;-75
2021/06/23 04:01:20;;;;;;;5.43;1.70;;;18.40;99.90;;;;;;5073410;28;20545;-73
2021/06/23 04:03:46;;;;;;;4.70;1.58;;;18.30;99.90;;;;;;5072735;28;20139;-75
2021/06/23 04:06:12;;;;;;;4.07;1.45;;;18.40;99.90;;;;;;5072824;28;20421;-75
2021/06/23 04:08:37;;;;;;;3.75;1.70;;;18.40;99.90;;;;;;5072686;28;20103;-75
2021/06/23 04:11:03;;;;;;;5.35;1.60;;;18.40;99.90;;;;;;5072772;28;20386;-76
2021/06/23 04:13:29;;;;;;;5.70;1.77;;;18.40;99.90;;;;;;5072647;28;20020;-74
2021/06/23 04:15:54;;;;;;;5.15;1.70;;;18.40;99.90;;;;;;5072450;28;20040;-75
2021/06/23 04:18:20;;;;;;;4.07;1.67;;;18.30;99.90;;;;;;5072682;28;20017;-75
2021/06/23 04:20:46;;;;;;;3.90;1.55;;;18.30;99.90;;;;;;5072173;28;20036;-74
2021/06/23 04:23:12;;;;;;;2.42;1.40;;;18.30;99.90;;;;;;5072525;28;20040;-74
2021/06/23 04:25:37;;;;;;;3.13;1.48;;;18.30;99.90;;;;;;5072324;28;20384;-75
2021/06/23 04:28:03;;;;;;;4.78;1.48;;;18.30;99.90;;;;;;5072588;28;20025;-74
2021/06/23 04:30:29;;;;;;;4.95;1.20;;;18.30;99.90;;;;;;5072167;28;20066;-75
2021/06/23 04:32:55;;;;;;;2.10;1.45;;;18.30;99.90;;;;;;5072412;28;20030;-75
2021/06/23 04:35:20;;;;;;;4.22;1.50;;;18.30;99.90;;;;;;5072679;28;20032;-75
2021/06/23 04:37:46;;;;;;;3.80;1.23;;;18.30;99.90;;;;;;5072108;28;20032;-75
2021/06/23 04:40:14;;;;;;;3.55;1.38;;;18.30;99.90;;;;;;5071953;28;20017;-75
2021/06/23 04:42:41;;;;;;;3.20;1.60;;;18.30;99.90;;;;;;5071844;28;20031;-74
2021/06/23 04:45:08;;;;;;;4.03;1.50;;;18.30;99.90;;;;;;5072398;28;20029;-73
2021/06/23 04:47:35;;;;;;;3.15;1.38;;;18.30;99.90;;;;;;5071586;28;20111;-74
2021/06/23 04:50:00;;;;;;;4.05;1.60;;;18.30;99.90;;;;;;5072028;28;20052;-75
2021/06/23 04:52:26;;;;;;;3.95;1.50;;;18.30;99.90;;;;;;5071747;28;20476;-74
2021/06/23 04:54:52;;;;;;;4.80;1.77;;;18.30;99.90;;;;;;5072484;28;20021;-74
2021/06/23 04:57:18;;;;;;;2.97;1.30;;;18.30;99.90;;;;;;5072119;28;20028;-74
2021/06/23 04:59:44;;;;;;;3.53;1.48;;;18.30;99.90;;;;;;5071754;28;20478;-74
2021/06/23 05:02:10;;;;;;;4.50;1.42;;;18.30;99.90;;;;;;5071282;28;20056;-74
2021/06/23 05:04:36;;;;;;;2.55;1.00;;;18.30;99.90;;;;;;5071233;28;20392;-74
2021/06/23 05:07:04;;;;;;;2.80;1.50;;;18.30;99.90;;;;;;5071759;28;20102;-75
2021/06/23 05:09:30;;;;;;;4.35;1.73;;;18.30;99.90;;;;;;5071679;28;20047;-75
2021/06/23 05:11:56;;;;;;;4.28;1.65;;;18.30;99.90;;;;;;5071804;28;20024;-74
2021/06/23 05:14:22;;;;;;;4.60;1.48;;;18.30;99.90;;;;;;5072139;28;20445;-75
2021/06/23 05:16:50;;;;;;;4.50;1.55;;;18.30;99.90;;;;;;5071082;28;20028;-75
2021/06/23 05:19:17;;;;;;;4.38;1.65;;;18.30;99.90;;;;;;5071147;28;20032;-74
2021/06/23 05:21:42;;;;;;;2.33;1.33;;;18.30;99.90;;;;;;5071369;28;20044;-75
2021/06/23 05:24:08;;;;;;;3.90;1.48;;;18.30;99.90;;;;;;5071598;28;20113;-75
2021/06/23 05:26:34;;;;;;;5.45;1.60;;;18.30;99.90;;;;;;5071444;28;20036;-76
2021/06/23 05:29:00;;;;;;;3.58;1.58;;;18.30;99.90;;;;;;5071554;28;20020;-75
2021/06/23 05:31:25;;;;;;;3.70;1.50;;;18.30;99.90;;;;;;5069527;28;20033;-75
2021/06/23 05:33:51;;;;;;;3.03;1.38;;;18.30;99.90;;;;;;5071870;28;20029;-74
2021/06/23 05:36:18;;;;;;;3.72;1.60;;;18.30;99.90;;;;;;5071471;28;20021;-74
2021/06/23 05:38:44;;;;;;;4.38;1.60;;;18.30;99.90;;;;;;5071161;28;20032;-75
2021/06/23 05:41:09;;;;;;;4.85;1.52;;;18.30;99.90;;;;;;5071492;28;20029;-75
2021/06/23 05:43:35;;;;;;;4.40;1.67;;;18.30;99.90;;;;;;5071064;28;20044;-75
2021/06/23 05:46:01;;;;;;;3.45;1.60;;;18.30;99.90;;;;;;5070749;28;20033;-73
2021/06/23 05:48:26;;;;;;;3.83;1.60;;;18.20;99.90;;;;;;5068887;28;20425;-75
2021/06/23 05:50:52;;;;;;;5.38;1.60;;;18.20;99.90;;;;;;5071254;28;20036;-75
2021/06/23 05:53:18;;;;;;;2.97;1.48;;;18.20;99.90;;;;;;5074735;28;20012;-75
2021/06/23 05:55:43;;;;;;;2.63;1.63;;;18.20;99.90;;;;;;5074439;28;20109;-75
2021/06/23 05:58:09;;;;;;;4.35;1.70;;;18.20;99.90;;;;;;5074574;28;20058;-74
2021/06/23 06:00:36;;;;;;;5.07;1.83;;;18.20;99.90;;;;;;5082083;28;20031;-76
2021/06/23 06:03:04;;;;;;;3.88;1.50;;;18.20;99.90;;;;;;5083985;28;20384;-75
2021/06/23 06:05:30;;;;;;;3.42;1.65;;;18.20;99.90;;;;;;5074529;28;20024;-73
2021/06/23 06:07:56;;;;;;;4.88;1.88;;;18.30;99.90;;;;;;5074803;28;20021;-70
2021/06/23 06:10:22;;;;;;;6.30;1.88;;;18.20;99.90;;;;;;5074687;28;20396;-73
2021/06/23 06:12:47;;;;;;;5.93;1.80;;;18.30;99.90;;;;;;5074684;28;20028;-68
2021/06/23 06:15:14;;;;;;;6.63;1.77;;;18.40;99.90;;;;;;5074562;28;20062;-72
2021/06/23 06:17:40;;;;;;;7.05;1.90;;;18.40;99.90;;;;;;5074242;28;20063;-76
2021/06/23 06:20:06;;;;;;;5.43;1.92;;;18.40;99.90;;;;;;5074762;28;20021;-74
2021/06/23 06:22:32;;;;;;;4.10;1.50;;;18.40;99.90;;;;;;5074247;28;20028;-73
2021/06/23 06:24:59;;;;;;;4.25;1.63;;;18.30;99.90;;;;;;5074178;28;20032;-74
2021/06/23 06:27:25;;;;;;;7.10;2.38;;;18.40;99.90;;;;;;5074182;28;20484;-74
2021/06/23 06:29:51;;;;;;;4.60;2.17;;;18.40;99.90;;;;;;5074897;28;20025;-75
2021/06/23 06:32:17;;;;;;;5.90;2.17;;;18.30;99.90;;;;;;5074241;28;20377;-76
2021/06/23 06:34:43;;;;;;;4.25;2.05;;;18.40;99.90;;;;;;5074329;28;20112;-77
2021/06/23 06:37:09;;;;;;;11.48;1.90;;;18.40;99.90;;;;;;5074367;28;20095;-78
2021/06/23 06:39:35;;;;;;;4.47;2.17;;;18.40;99.90;;;;;;5074368;28;20024;-78
2021/06/23 06:42:01;;;;;;;6.00;2.38;;;18.40;99.90;;;;;;5074052;28;20103;-78
2021/06/23 06:44:30;;;;;;;7.13;2.33;;;18.40;99.90;;;;;;5072855;28;20060;-78
2021/06/23 06:46:56;;;;;;;5.70;2.45;;;18.40;99.90;;;;;;5073568;28;20021;-77
2021/06/23 06:49:21;;;;;;;5.78;2.58;;;18.40;99.90;;;;;;5074323;28;20161;-78
2021/06/23 06:51:47;;;;;;;6.95;2.50;;;18.40;99.90;;;;;;5073437;28;20158;-76
2021/06/23 06:54:12;;;;;;;6.25;2.42;;;18.40;99.90;;;;;;5074065;28;20020;-76
2021/06/23 06:56:38;;;;;;;5.28;2.42;;;18.40;99.90;;;;;;5072842;28;20025;-77
2021/06/23 06:59:04;;;;;;;6.30;2.20;;;18.40;99.90;;;;;;5073883;28;20024;-77
2021/06/23 07:01:29;;;;;;;4.80;2.30;;;18.40;99.90;;;;;;5072929;28;20488;-77
2021/06/23 07:03:55;;;;;;;6.30;2.33;;;18.40;99.90;;;;;;5073778;28;20138;-79
2021/06/23 07:06:21;;;;;;;6.70;2.88;;;18.40;99.90;;;;;;5073187;28;20020;-75
2021/06/23 07:08:46;;;;;;;6.57;2.70;;;18.50;99.90;;;;;;5073507;28;20102;-75
2021/06/23 07:11:12;;;;;;;5.50;2.55;;;18.50;99.90;;;;;;5073950;28;20028;-75
2021/06/23 07:13:38;;;;;;;5.85;3.03;;;18.50;99.90;;;;;;5072976;28;20047;-74
2021/06/23 07:16:04;;;;;;;8.85;3.30;;;18.50;99.90;;;;;;5073621;28;20117;-72
2021/06/23 07:18:30;;;;;;;6.45;3.17;;;18.50;99.90;;;;;;5072785;28;20032;-69
2021/06/23 07:20:55;;;;;;;5.72;3.25;;;18.40;99.90;;;;;;5073114;28;20063;-67
2021/06/23 07:23:21;;;;;;;6.78;3.00;;;18.40;99.90;;;;;;5074099;28;20089;-66
2021/06/23 07:25:47;;;;;;;10.32;3.58;;;18.40;99.90;;;;;;5072537;28;20099;-65
2021/06/23 07:28:15;;;;;;;7.20;3.42;;;18.40;99.90;;;;;;5077818;28;20068;-68
2021/06/23 07:30:44;;;;;;;10.55;3.45;;;18.40;99.90;;;;;;5073644;28;20036;-69
2021/06/23 07:33:10;;;;;;;7.40;3.22;;;18.40;99.90;;;;;;5074346;28;20104;-73
2021/06/23 07:38:20;;;;;;;6.45;3.03;;;18.50;99.90;;;;;;5073851;28;20048;-71
2021/06/23 07:41:01;;;;;;;7.50;2.97;;;18.50;99.90;;;;;;5072921;28;20472;-70
2021/06/23 07:43:27;;;;;;;9.25;3.35;;;18.50;99.90;;;;;;5072600;28;20036;-70
2021/06/23 07:45:56;;;;;;;8.82;3.08;;;18.50;99.90;;;;;;5073739;28;20078;-68
2021/06/23 07:48:28;;;;;;;4.45;2.80;;;18.50;99.90;;;;;;5073075;28;20032;-66
2021/06/23 07:51:07;;;;;;;7.20;3.53;;;18.60;99.90;;;;;;5073439;28;20028;-70
2021/06/23 07:53:52;;;;;;;8.25;3.30;;;18.60;99.90;;;;;;5072927;28;20111;-67
2021/06/23 08:02:22;;;;;;;7.57;3.30;;;18.60;99.90;;;;;;5072868;28;20498;-66
2021/06/23 08:10:03;;;;;;;5.57;3.25;;;18.60;99.90;;;;;;5073049;28;20050;-71
2021/06/23 08:12:38;;;;;;;8.93;3.38;;;18.70;99.90;;;;;;5071570;28;20043;-71
2021/06/23 08:15:05;;;;;;;8.93;3.70;;;18.70;99.90;;;;;;5072232;28;20032;-68
2021/06/23 08:17:30;;;;;;;7.35;3.20;;;18.70;99.90;;;;;;5072459;28;20096;-66
2021/06/23 08:19:56;;;;;;;6.25;3.47;;;18.70;99.90;;;;;;5072704;28;20515;-67
2021/06/23 08:22:21;;;;;;;6.93;3.28;;;18.80;99.90;;;;;;5072658;28;20047;-67
2021/06/23 08:24:47;;;;;;;5.32;3.55;;;18.80;99.90;;;;;;5072449;28;20025;-67
2021/06/23 08:27:13;;;;;;;7.57;3.30;;;18.90;99.90;;;;;;5072482;28;20530;-71
2021/06/23 08:29:38;;;;;;;6.90;3.55;;;18.90;99.90;;;;;;5072440;28;20074;-69
2021/06/23 08:32:05;;;;;;;6.55;3.30;;;18.90;99.90;;;;;;5072522;28;20036;-69
2021/06/23 08:34:30;;;;;;;6.63;3.65;;;18.90;99.90;;;;;;5072171;28;20016;-70
2021/06/23 08:36:56;;;;;;;6.45;3.40;;;18.90;99.90;;;;;;5072350;28;20107;-72
2021/06/23 08:39:22;;;;;;;7.75;3.20;;;19.00;99.90;;;;;;5072577;28;20104;-67
2021/06/23 08:41:48;;;;;;;6.85;3.38;;;19.00;99.90;;;;;;5071909;28;20036;-66
2021/06/23 08:44:13;;;;;;;7.03;3.42;;;19.00;99.90;;;;;;5071985;28;20044;-66
2021/06/23 08:46:40;;;;;;;6.15;2.92;;;19.00;99.90;;;;;;5072061;28;20357;-68
2021/06/23 08:49:09;;;;;;;5.22;3.00;;;19.10;99.90;;;;;;5072189;28;20069;-67
2021/06/23 08:51:36;;;;;;;4.75;3.00;;;19.10;99.90;;;;;;5071544;28;20473;-67
2021/06/23 08:54:03;;;;;;;5.40;3.33;;;19.20;99.90;;;;;;5072047;28;20017;-68
2021/06/23 08:56:29;;;;;;;5.88;3.22;;;19.20;99.90;;;;;;5071705;28;20025;-68
2021/06/23 08:58:55;;;;;;;4.43;3.03;;;19.10;99.90;;;;;;5072126;28;20472;-68
2021/06/23 09:01:20;;;;;;;6.82;3.10;;;19.20;99.90;;;;;;5072224;28;20043;-68
2021/06/23 09:04:08;;;;;;;8.98;3.00;;;19.20;99.90;;;;;;5071559;28;20044;-66
2021/06/23 09:06:46;;;;;;;6.20;3.13;;;19.20;99.90;;;;;;5071927;28;20384;-65
2021/06/23 09:09:16;;;;;;;4.63;2.97;;;19.20;99.90;;;;;;5071773;28;20384;-68
2021/06/23 09:11:42;;;;;;;4.90;3.17;;;19.20;99.90;;;;;;5071339;28;20029;-66
2021/06/23 09:14:12;;;;;;;5.28;3.15;;;19.20;99.90;;;;;;5071340;28;20036;-67
2021/06/23 09:17:15;;;;;;;6.18;3.20;;;19.20;99.90;;;;;;5066440;28;20063;-66
2021/06/23 09:19:51;;;;;;;5.57;3.25;;;19.30;99.90;;;;;;5051496;28;20017;-66
2021/06/23 09:22:40;;;;;;;5.13;2.97;;;19.20;99.90;;;;;;5051616;28;20104;-66
2021/06/23 09:25:12;;;;;;;6.47;3.03;;;19.20;99.90;;;;;;5072240;28;20039;-65
2021/06/23 09:27:51;;;;;;;5.88;3.20;;;19.20;99.90;;;;;;5070327;28;20078;-66
2021/06/23 09:30:33;;;;;;;6.50;3.17;;;19.30;99.90;;;;;;5071694;28;20028;-65
2021/06/23 09:33:22;;;;;;;4.72;3.10;;;19.30;99.90;;;;;;5071962;28;20035;-68
2021/06/23 09:36:02;;;;;;;5.63;3.03;;;19.40;99.90;;;;;;5070897;28;20024;-71
2021/06/23 09:38:38;;;;;;;6.53;3.05;;;19.40;99.90;;;;;;5071051;28;20056;-68
2021/06/23 09:41:05;;;;;;;4.72;3.08;;;19.30;99.90;;;;;;5071592;28;20028;-69
2021/06/23 09:43:41;;;;;;;5.80;3.50;;;19.30;99.90;;;;;;5072200;28;20028;-68
2021/06/23 09:46:40;;;;;;;5.28;3.10;;;19.30;99.90;;;;;;5071607;28;20103;-67
2021/06/23 09:49:11;;;;;;;6.30;3.10;;;19.40;99.90;;;;;;5060118;28;20036;-66
2021/06/23 09:51:42;;;;;;;3.95;2.80;;;19.30;99.90;;;;;;5071016;28;20541;-66
2021/06/23 09:54:08;;;;;;;5.82;2.78;;;19.30;99.90;;;;;;5071531;28;20028;-66
2021/06/23 09:56:38;;;;;;;4.57;3.03;;;19.40;99.90;;;;;;5071085;28;20523;-68
2021/06/23 09:59:05;;;;;;;8.32;3.28;;;19.40;99.90;;;;;;5072498;28;20034;-67
2021/06/23 10:01:38;;;;;;;5.50;3.20;;;19.40;99.90;;;;;;5070848;28;20039;-67
2021/06/23 10:04:06;;;;;;;4.72;3.30;;;19.40;99.90;;;;;;5071165;28;20051;-71
2021/06/23 10:06:37;;;;;;;7.38;3.60;;;19.40;99.90;;;;;;5071118;28;20025;-68
2021/06/23 10:09:24;;;;;;;5.10;3.40;;;19.40;99.90;;;;;;5070790;28;20377;-69
2021/06/23 10:12:06;;;;;;;7.35;3.35;;;19.50;99.90;;;;;;5071599;28;20130;-70
2021/06/23 10:14:34;;;;;;;9.95;4.30;;;19.50;99.90;;;;;;5070869;28;20027;-71
2021/06/23 10:17:02;;;;;;;6.75;4.05;;;19.50;99.90;;;;;;5071095;28;20396;-72
2021/06/23 10:19:29;;;;;;;5.65;3.85;;;19.50;99.90;;;;;;5070696;28;20480;-71
2021/06/23 10:21:58;;;;;;;6.65;3.80;;;19.50;99.90;;;;;;5071021;28;20518;-72
2021/06/23 10:24:27;;;;;;;7.88;4.40;;;19.50;99.90;;;;;;5070757;28;20071;-69
2021/06/23 10:26:53;;;;;;;10.13;4.35;;;19.60;99.90;;;;;;5071364;28;20415;-68
2021/06/23 10:29:24;;;;;;;5.65;4.25;;;19.50;99.90;;;;;;5071529;28;20033;-68
2021/06/23 10:31:50;;;;;;;7.00;4.72;;;19.50;99.90;;;;;;5070305;28;20528;-67
2021/06/23 10:34:17;;;;;;;7.68;4.70;;;19.60;99.90;;;;;;5070606;28;20033;-71
2021/06/23 10:36:43;;;;;;;10.35;5.95;;;19.60;99.90;;;;;;5070626;28;20025;-71
2021/06/23 10:39:10;;;;;;;9.18;6.28;;;19.60;99.90;;;;;;5073556;28;20029;-71
2021/06/23 10:41:38;;;;;;;11.73;7.22;;;19.70;99.90;;;;;;5074430;28;20464;-67
2021/06/23 10:44:17;;;;;;;11.77;6.70;;;19.70;99.90;;;;;;5074568;28;20098;-68
2021/06/23 10:46:43;;;;;;;12.15;6.72;;;19.70;99.90;;;;;;5074157;28;20944;-69
2021/06/23 10:49:11;;;;;;;14.23;7.55;;;19.70;99.90;;;;;;5074580;28;20016;-72
2021/06/23 10:51:40;;;;;;;15.13;7.13;;;19.70;99.90;;;;;;5074305;28;20036;-67
2021/06/23 10:54:32;;;;;;;13.00;7.13;;;19.70;99.90;;;;;;5074484;28;20103;-66
2021/06/23 10:56:57;;;;;;;12.70;7.40;;;19.80;99.90;;;;;;5074269;28;20048;-65
2021/06/23 10:59:29;;;;;;;13.07;7.32;;;19.80;99.90;;;;;;5073840;28;20073;-67
2021/06/23 11:02:09;;;;;;;13.98;7.25;;;19.70;99.90;;;;;;5074443;28;20465;-69
2021/06/23 11:05:03;;;;;;;14.88;6.90;;;19.70;99.90;;;;;;5082226;28;20028;-71
2021/06/23 11:07:40;;;;;;;13.70;7.40;;;19.80;99.90;;;;;;5083193;28;20431;-66
2021/06/23 11:10:15;;;;;;;17.50;6.72;;;19.70;99.90;;;;;;5073678;28;20274;-64
2021/06/23 11:12:47;;;;;;;25.95;7.93;;;19.80;99.90;;;;;;5073970;28;20048;-75
2021/06/23 11:15:17;;;;;;;17.23;7.18;;;19.70;99.90;;;;;;5074092;28;20028;-80
2021/06/23 11:17:44;;;;;;;19.70;7.85;;;18.50;99.90;;;;;;5079245;28;20383;-76
2021/06/23 11:20:18;;;;;;;17.55;8.15;;;17.60;99.90;;;;;;5078268;28;20052;-75
2021/06/23 11:22:45;;;;;;;19.02;8.52;;;17.00;99.90;;;;;;5073394;28;20381;-76
2021/06/23 11:25:28;;;;;;;23.30;10.75;;;17.20;99.90;;;;;;5091405;28;20027;-76
2021/06/23 11:28:12;;;;;;;22.58;9.52;;;16.70;99.90;;;;;;5094090;28;20016;-73
2021/06/23 11:30:50;;;;;;;23.40;10.48;;;17.30;99.90;;;;;;5091870;28;20415;-74
2021/06/23 11:33:36;;;;;;;19.38;9.68;;;17.70;99.90;;;;;;5073587;28;20024;-74
2021/06/23 11:36:04;;;;;;;21.23;9.80;;;18.00;99.90;;;;;;5078905;28;20040;-74
2021/06/23 11:38:31;;;;;;;20.73;9.68;;;18.10;99.90;;;;;;5082162;28;20047;-77
2021/06/23 11:40:57;;;;;;;23.73;10.75;;;18.20;99.90;;;;;;5091425;28;20105;-74
2021/06/23 11:43:24;;;;;;;22.33;11.10;;;18.20;99.90;;;;;;5073416;28;20043;-76
2021/06/23 11:45:50;;;;;;;19.90;10.02;;;18.20;99.90;;;;;;5076872;28;20096;-74
2021/06/23 11:48:16;;;;;;;21.63;10.05;;;18.20;99.90;;;;;;5073244;28;20056;-76
2021/06/23 11:50:43;;;;;;;19.70;10.93;;;18.20;99.90;;;;;;5071997;28;20021;-74
2021/06/23 11:53:11;;;;;;;22.45;10.55;;;18.20;99.90;;;;;;5074331;28;20031;-76
2021/06/23 11:55:38;;;;;;;16.88;10.13;;;18.20;99.90;;;;;;5076343;28;20032;-77
2021/06/23 11:58:04;;;;;;;20.67;11.45;;;18.20;99.90;;;;;;5072823;28;20020;-74
2021/06/23 12:00:31;;;;;;;23.65;11.60;;;18.20;99.90;;;;;;5072719;28;20385;-74
2021/06/23 12:02:59;;;;;;;26.00;11.63;;;18.20;99.90;;;;;;5071950;28;20484;-78
2021/06/23 12:05:25;;;;;;;22.60;10.82;;;18.20;99.90;;;;;;5071478;28;20029;-77
2021/06/23 12:07:52;;;;;;;18.80;10.13;;;18.20;99.90;;;;;;5084591;28;20062;-75
2021/06/23 12:10:23;;;;;;;21.20;10.30;;;18.20;99.90;;;;;;5093176;28;20452;-79
2021/06/23 12:12:49;;;;;;;14.15;9.43;;;18.20;99.90;;;;;;5093299;28;20411;-76
2021/06/23 12:15:20;;;;;;;18.23;9.43;;;18.30;99.90;;;;;;5092901;28;20051;-77
2021/06/23 12:17:51;;;;;;;17.05;10.07;;;18.40;99.90;;;;;;5076766;28;20031;-75
2021/06/23 12:20:17;;;;;;;16.85;9.02;;;18.50;99.90;;;;;;5071584;28;20389;-77
2021/06/23 12:22:43;;;;;;;18.30;9.18;;;18.60;99.90;;;;;;5076492;28;20036;-75
2021/06/23 12:25:11;;;;;;;17.90;9.23;;;18.70;99.90;;;;;;5092900;28;20036;-77
2021/06/23 12:27:38;;;;;;;16.45;8.80;;;18.80;99.90;;;;;;5092728;28;20035;-77
2021/06/23 12:30:06;;;;;;;16.08;8.70;;;18.90;99.90;;;;;;5083031;28;20036;-73
2021/06/23 12:32:33;;;;;;;14.95;8.80;;;18.90;99.90;;;;;;5072298;28;20024;-79
2021/06/23 12:35:00;;;;;;;18.30;8.75;;;18.90;99.90;;;;;;5072205;28;20372;-76
2021/06/23 12:37:26;;;;;;;13.68;8.25;;;19.00;99.90;;;;;;5072212;28;20029;-76
2021/06/23 12:39:52;;;;;;;16.55;8.52;;;19.00;99.90;;;;;;5072663;28;20465;-77
2021/06/23 12:42:18;;;;;;;14.35;8.57;;;19.10;99.90;;;;;;5072246;28;20115;-77
2021/06/23 12:44:44;;;;;;;14.73;8.15;;;19.10;99.90;;;;;;5072059;28;20028;-75
2021/06/23 12:47:10;;;;;;;13.88;8.65;;;19.20;99.90;;;;;;5070558;28;20119;-78
2021/06/23 12:49:35;;;;;;;15.38;8.20;;;19.20;99.90;;;;;;5071442;28;20067;-78
2021/06/23 12:52:01;;;;;;;14.57;8.40;;;19.30;99.90;;;;;;5071894;28;20354;-78
2021/06/23 12:54:28;;;;;;;13.50;8.48;;;19.30;99.90;;;;;;5075183;28;20082;-75
2021/06/23 12:56:53;;;;;;;15.15;8.60;;;19.30;99.90;;;;;;5071446;28;20036;-76
2021/06/23 12:59:19;;;;;;;15.43;8.25;;;19.30;99.90;;;;;;5071975;28;20020;-80
2021/06/23 13:01:45;;;;;;;16.88;8.35;;;19.40;99.90;;;;;;5070707;28;20035;-79
2021/06/23 13:04:11;;;;;;;12.75;8.07;;;19.40;99.90;;;;;;5091032;28;20032;-78